• Join FlightAware (Why Join?)
  • Login
  • US Flag 
09:40PM EDT


 

Airport Tracker/Info


-or-


 

Live Flight TrackerFlight Track Log ✈ N1926A ✈ 19-Sep-2013 ✈ KJWY - 41A

Flight Track Log - Related Links

Times and Time Zones

All times are in EDT time to prevent confusion due to time zone crossing. See the N1926A flight status page for this flight to view local times or setup timezone preferences in your user account.

Time Position Orientation Groundspeed Altitude Reporting Facility
EDT Latitude Longitude Course Direction KTS MPH feet Rate Location/Type
04:09PM 32.4333 -96.9000 73° East 171 197 1,800  Level Dallas / Fort Worth TRACON
04:10PM 32.4500 -96.8333 73° East 216 249 3,000 900 Climbing Dallas / Fort Worth TRACON
04:11PM 32.5000 -96.7667 48° Northeast 230 265 4,000 420 Climbing Dallas / Fort Worth TRACON
04:12PM 32.5333 -96.7000 59° Northeast 249 287 4,000  Level Dallas / Fort Worth TRACON
04:13PM 32.6000 -96.6500 32° Northeast 257 296 4,000  Level Dallas / Fort Worth TRACON
04:14PM 32.6333 -96.6000 52° Northeast 256 295 4,000  Level Dallas / Fort Worth TRACON
04:16PM 32.7072 -96.5319 38° Northeast 276 318 4,000 300 Level Fort Worth Center
04:17PM 32.7528 -96.4797 44° Northeast 269 310 4,700 1,380 Climbing Fort Worth Center
04:18PM 32.7983 -96.4247 45° Northeast 225 259 6,800 1,800 Climbing Fort Worth Center
04:19PM 32.8353 -96.3775 47° Northeast 209 241 8,300 1,560 Climbing Fort Worth Center
04:20PM 32.8767 -96.3175 51° Northeast 209 241 10,000 840 Climbing Fort Worth Center
04:21PM 32.8739 -96.2458 93° East 214 246 10,000  Level Fort Worth Center
04:22PM 32.8708 -96.1519 92° East 242 278 10,000 660 Level Fort Worth Center
04:23PM 32.8700 -96.0753 91° East 260 299 11,400 1,620 Climbing Fort Worth Center
04:24PM 32.8714 -95.9986 89° East 222 255 13,300 1,680 Climbing Fort Worth Center
04:25PM 32.8725 -95.9244 89° East 216 249 14,800 900 Climbing Fort Worth Center
04:26PM 32.8736 -95.8428 89° East 231 266 15,100 780 Climbing Fort Worth Center
04:27PM 32.8747 -95.7586 89° East 247 284 16,400 1,140 Climbing Fort Worth Center
04:28PM 32.8800 -95.6794 85° East 247 284 17,400 1,020 Climbing Fort Worth Center
04:29PM 32.8831 -95.6050 87° East 247 284 18,500 1,140 Climbing Fort Worth Center
04:30PM 32.8839 -95.5233 89° East 247 284 19,700 3,240 Climbing Fort Worth Center
04:31PM 32.8786 -95.4469 95° East 242 278 25,000 1,200 Climbing Fort Worth Center
04:32PM 32.8794 -95.3703 89° East 232 267 22,100 -900 Descending Fort Worth Center
04:33PM 32.8761 -95.2961 93° East 227 261 23,200 960 Climbing Fort Worth Center
04:34PM 32.8769 -95.2144 89° East 233 268 24,100 900 Climbing Fort Worth Center
04:35PM 32.8775 -95.1378 89° East 233 268 25,000 420 Climbing Fort Worth Center
04:36PM 32.8761 -95.0536 91° East 239 275 25,000  Level Fort Worth Center
04:37PM 32.8764 -94.9597 90° East 254 292 25,000  Level Fort Worth Center
04:38PM 32.8786 -94.8656 88° East 276 318 25,000  Level Fort Worth Center
04:39PM 32.8786 -94.7717 90° East 282 325 25,000  Level Fort Worth Center
04:40PM 32.8808 -94.6725 88° East 282 325 25,000  Level Fort Worth Center
04:41PM 32.8786 -94.5761 92° East 287 330 25,000  Level Fort Worth Center
04:42PM 32.8786 -94.4797 90° East 287 330 25,000  Level Fort Worth Center
04:43PM 32.8764 -94.3833 92° East 287 330 25,000  Level Fort Worth Center
04:44PM 32.8739 -94.2844 92° East 287 330 25,000  Level Fort Worth Center
04:45PM 32.8736 -94.1881 90° East 287 330 25,000  Level Fort Worth Center
04:46PM 32.8731 -94.0892 90° East 294 338 25,000  Level Fort Worth Center
04:47PM 32.8725 -93.9903 90° East 294 338 25,000  Level Fort Worth Center
04:48PM 32.8697 -93.8939 92° East 289 333 25,000  Level Fort Worth Center
04:49PM 32.8692 -93.7950 90° East 289 333 25,000  Level Fort Worth Center
04:50PM 32.8639 -93.6864 93° East 289 333 25,000  Level Fort Worth Center
04:51PM 32.8628 -93.5875 91° East 289 333 25,000  Level Fort Worth Center
04:52PM 32.8642 -93.4911 89° East 289 333 25,000  Level Fort Worth Center
04:53PM 32.8653 -93.3944 89° East 289 333 25,000  Level Fort Worth Center
04:54PM 32.8642 -93.2931 91° East 289 333 25,000  Level Fort Worth Center
04:55PM 32.8621 -93.2049 92° East  Level FlightAware Approximate
04:56PM 32.8617 -93.0981 92° East 289 333 25,000  Level Fort Worth Center
04:57PM 32.8625 -93.0014 89° East 289 333 25,000  Level Fort Worth Center
04:58PM 32.8589 -92.9003 92° East 289 333 25,000  Level Fort Worth Center
04:59PM 32.8533 -92.8042 94° East 289 333 25,000  Level Fort Worth Center
05:00PM 32.8536 -92.7028 90° East 289 333 25,000  Level Fort Worth Center
05:01PM 32.8542 -92.6039 90° East 289 333 25,000  Level Fort Worth Center
05:02PM 32.8503 -92.5050 93° East 289 333 25,000  Level Fort Worth Center
05:03PM 32.8467 -92.4089 93° East 289 333 25,000  Level Fort Worth Center
05:04PM 32.8417 -92.2292 92° East 296 341 25,000  Level Memphis Center
05:05PM 32.8411 -92.1325 90° East 291 335 25,000  Level Memphis Center
05:06PM 32.8381 -92.0361 92° East 291 335 25,000  Level Memphis Center
05:07PM 32.8289 -91.9419 97° East 298 343 25,000  Level Memphis Center
05:08PM 32.8281 -91.8431 91° East 298 343 25,000  Level Memphis Center
05:09PM 32.8250 -91.7417 92° East 298 343 25,000  Level Memphis Center
05:10PM 32.8219 -91.6453 92° East 298 343 25,000  Level Memphis Center
05:11PM 32.8189 -91.5339 92° East 298 343 25,000  Level Memphis Center
05:12PM 32.8156 -91.4375 92° East 298 343 25,000  Level Memphis Center
05:13PM 32.8122 -91.3411 92° East 293 337 25,000  Level Memphis Center
05:14PM 32.8108 -91.2397 91° East 293 337 25,000  Level Memphis Center
05:15PM 32.8072 -91.1408 92° East 293 337 25,000  Level Memphis Center
05:16PM 32.8036 -91.0394 92° East 293 337 25,000  Level Memphis Center
05:17PM 32.8022 -90.9431 91° East 293 337 25,000  Level Memphis Center
05:18PM 32.7964 -90.8467 94° East 293 337 25,000  Level Memphis Center
05:19PM 32.7944 -90.7453 91° East 293 337 25,000  Level Memphis Center
05:20PM 32.7906 -90.6489 93° East 293 337 25,000  Level Memphis Center
05:21PM 32.7844 -90.5500 94° East 293 337 25,000  Level Memphis Center
05:22PM 32.7806 -90.4536 93° East 293 337 25,000  Level Memphis Center
05:23PM 32.7783 -90.3572 92° East 288 331 25,000  Level Memphis Center
05:24PM 32.7700 -90.2608 96° East 288 331 25,000  Level Memphis Center
05:25PM 32.7636 -90.1744 95° East 288 331 25,000  Level Memphis Center
05:26PM 32.7592 -90.0806 93° East 288 331 25,000  Level Memphis Center
05:27PM 32.7569 -89.9817 92° East 288 331 25,000  Level Memphis Center
05:28PM 32.7567 -89.8856 90° East 288 331 25,000  Level Memphis Center
05:29PM 32.7542 -89.7917 92° East 288 331 25,000  Level Memphis Center
05:30PM 32.7517 -89.6978 92° East 288 331 25,000  Level Memphis Center
05:31PM 32.7469 -89.6014 93° East 288 331 25,000  Level Memphis Center
05:32PM 32.7400 -89.4953 94° East 293 337 25,000  Level Memphis Center
05:33PM 32.7350 -89.3992 94° East 293 337 25,000  Level Memphis Center
05:34PM 32.7322 -89.3028 92° East 293 337 25,000  Level Memphis Center
05:35PM 32.7272 -89.2067 94° East 293 337 25,000  Level Memphis Center
05:36PM 32.7200 -89.1103 95° East 293 337 25,000  Level Memphis Center
05:37PM 32.7169 -89.0142 92° East 293 337 25,000  Level Memphis Center
05:38PM 32.7219 -88.9203 86° East 287 330 25,000  Level Memphis Center
05:39PM 32.7356 -88.8261 80° East 287 330 25,000  Level Memphis Center
05:40PM 32.7322 -88.7297 92° East 287 330 25,000  Level Memphis Center
05:41PM 32.7206 -88.6336 98° East 287 330 25,000  Level Memphis Center
05:43PM 32.6964 -88.4569 99° East 287 330 25,000  Level Atlanta Center
05:44PM 32.6853 -88.3600 98° East 292 336 25,000  Level Atlanta Center
05:45PM 32.6778 -88.2733 96° East 292 336 25,000  Level Atlanta Center
05:46PM 32.6728 -88.1794 94° East 292 336 25,000  Level Atlanta Center
05:47PM 32.6678 -88.0806 93° East 292 336 25,000  Level Atlanta Center
05:48PM 32.6631 -87.9644 93° East 308 354 25,000  Level Atlanta Center
05:49PM 32.6558 -87.8653 95° East 308 354 25,000  Level Atlanta Center
05:50PM 32.6525 -87.7689 92° East 303 349 25,000  Level Atlanta Center
05:51PM 32.6450 -87.6725 95° East 297 342 25,000  Level Atlanta Center
05:52PM 32.6394 -87.5761 94° East 292 336 25,000 -300 Level Atlanta Center
05:53PM 32.6319 -87.4722 95° East 292 336 24,400 -540 Descending Atlanta Center
05:54PM 32.6242 -87.3708 95° East 297 342 24,000 -300 Descending Atlanta Center
05:55PM 32.6164 -87.2717 95° East 302 348 23,800 -960 Descending Atlanta Center
05:56PM 32.6086 -87.1656 95° East 312 359 22,100 -1,680 Descending Atlanta Center
05:57PM 32.6031 -87.0592 94° East 317 365 20,500 1,440 Descending Atlanta Center
05:58PM 32.5844 -86.9575 102° East 317 365 25,000 2,220 Climbing Atlanta Center
05:59PM 32.5578 -86.8531 107° East 317 365 25,000  Level Atlanta Center
06:00PM 32.5539 -86.7494 93° East 317 365 25,000  Level Atlanta Center
06:01PM 32.5497 -86.6508 93° East 311 358 25,000  Level Atlanta Center
06:02PM 32.5475 -86.5547 92° East 306 352 25,000  Level Atlanta Center
06:03PM 32.5453 -86.4611 92° East 295 339 25,000  Level Atlanta Center
06:04PM 32.5425 -86.3797 92° East 274 315 25,000  Level Atlanta Center
06:05PM 32.5378 -86.3006 94° East 249 287 25,000  Level Atlanta Center
06:06PM 32.5328 -86.2267 95° East 244 281 25,000  Level Atlanta Center
06:07PM 32.5281 -86.1478 94° East 244 281 25,000  Level Atlanta Center
06:08PM 32.5253 -86.0664 92° East 244 281 25,000  Level Atlanta Center
06:09PM 32.5217 -86.0194 95° East 244 281 25,000  Level Atlanta Center
06:11PM 32.5000 -85.9220 90° East  Level FlightAware Approximate
06:18PM 32.5000 -85.8667 North  Level FlightAware Approximate
06:19PM 32.5149 -85.8762 North  Level Estimated
06:20PM 32.5149 -85.8762 North  Level Estimated
06:21PM 32.5149 -85.8762 North  Level Estimated